Time;durP1;ratioP1;P1;durP2;ratioP2;P2;SDS_P1;SDS_P2;PMS_P1;PMS_P2;Temp;Humidity;BMP_temperature;BMP_pressure;BME280_temperature;BME280_humidity;BME280_pressure;Samples;Min_cycle;Max_cycle;Signal;HPM_P1;HPM_P2
2021/12/03 00:00:34;;;;;;;1.93;1.53;;;4.40;99.90;;;;;;4998125;28;20237;-59
2021/12/03 00:03:01;;;;;;;1.37;1.33;;;4.30;99.90;;;;;;5002272;28;20293;-60
2021/12/03 00:05:28;;;;;;;1.33;1.33;;;4.30;99.90;;;;;;5003595;28;20253;-60
2021/12/03 00:07:55;;;;;;;1.40;1.30;;;4.30;99.90;;;;;;5010917;28;20219;-60
2021/12/03 00:10:24;;;;;;;1.20;1.20;;;4.30;99.90;;;;;;5010672;28;20240;-61
2021/12/03 00:12:52;;;;;;;1.30;1.30;;;4.30;99.90;;;;;;5004128;28;20233;-60
2021/12/03 00:15:19;;;;;;;1.37;1.37;;;4.30;99.90;;;;;;4996825;28;20210;-60
2021/12/03 00:17:48;;;;;;;1.10;1.10;;;4.20;99.90;;;;;;4997507;28;21093;-61
2021/12/03 00:20:15;;;;;;;1.30;1.30;;;4.20;99.90;;;;;;4995444;28;20212;-60
2021/12/03 00:22:44;;;;;;;1.17;1.17;;;4.20;99.90;;;;;;5006153;28;20325;-61
2021/12/03 00:25:11;;;;;;;1.10;1.10;;;4.20;99.90;;;;;;5000053;28;20226;-59
2021/12/03 00:27:38;;;;;;;1.20;1.20;;;4.20;99.90;;;;;;5006033;28;20232;-60
2021/12/03 00:30:07;;;;;;;1.30;1.30;;;4.30;99.90;;;;;;5002559;28;20273;-60
2021/12/03 00:32:35;;;;;;;1.30;1.20;;;4.30;99.90;;;;;;4997941;28;20273;-59
2021/12/03 00:35:04;;;;;;;1.23;1.23;;;4.30;99.90;;;;;;4997883;28;20292;-59
2021/12/03 00:37:31;;;;;;;1.40;1.30;;;4.30;99.90;;;;;;5001297;28;20308;-59
2021/12/03 00:39:58;;;;;;;1.33;1.30;;;4.20;99.90;;;;;;4996607;28;20297;-60
2021/12/03 00:42:28;;;;;;;1.57;1.47;;;4.20;99.90;;;;;;4997227;28;20214;-59
2021/12/03 00:44:55;;;;;;;1.20;1.20;;;4.10;99.90;;;;;;4996901;28;20920;-60
2021/12/03 00:47:23;;;;;;;1.10;1.10;;;4.10;99.90;;;;;;4998699;28;20727;-59
2021/12/03 00:49:50;;;;;;;1.20;1.20;;;4.10;99.90;;;;;;4997233;28;20718;-60
2021/12/03 00:52:19;;;;;;;1.50;1.40;;;4.10;99.90;;;;;;5000727;28;20296;-59
2021/12/03 00:54:47;;;;;;;1.43;1.43;;;4.20;99.90;;;;;;5001814;28;20293;-60
2021/12/03 00:57:14;;;;;;;1.30;1.30;;;4.20;99.90;;;;;;5000145;28;20274;-61
2021/12/03 00:59:41;;;;;;;1.37;1.37;;;4.10;99.90;;;;;;4998882;28;20202;-61
2021/12/03 01:02:08;;;;;;;1.30;1.30;;;4.10;99.90;;;;;;4998997;28;20292;-61
2021/12/03 01:04:35;;;;;;;1.30;1.30;;;4.00;99.90;;;;;;4997593;28;20325;-61
2021/12/03 01:07:02;;;;;;;1.60;1.50;;;4.10;99.90;;;;;;4998269;28;20289;-59
2021/12/03 01:09:31;;;;;;;1.33;1.33;;;4.10;99.90;;;;;;4999775;28;20198;-60
2021/12/03 01:11:58;;;;;;;1.53;1.43;;;4.00;99.90;;;;;;4997911;28;20214;-62
2021/12/03 01:14:25;;;;;;;1.40;1.40;;;4.00;99.90;;;;;;4999586;28;20304;-59
2021/12/03 01:16:52;;;;;;;1.47;1.47;;;4.00;99.90;;;;;;4996547;28;20281;-60
2021/12/03 01:19:20;;;;;;;1.20;1.20;;;4.00;99.90;;;;;;4995929;28;20209;-60
2021/12/03 01:21:47;;;;;;;1.63;1.53;;;4.00;99.90;;;;;;4996210;28;20297;-60
2021/12/03 01:24:14;;;;;;;1.40;1.40;;;4.10;99.90;;;;;;4999620;28;20226;-60
2021/12/03 01:26:44;;;;;;;1.47;1.47;;;4.10;99.90;;;;;;4998417;28;20206;-61
2021/12/03 01:29:11;;;;;;;1.40;1.40;;;4.10;99.90;;;;;;4996486;28;20245;-60
2021/12/03 01:31:38;;;;;;;1.60;1.50;;;4.20;99.90;;;;;;4997580;28;20576;-61
2021/12/03 01:34:05;;;;;;;1.40;1.40;;;4.10;99.90;;;;;;4995514;28;20645;-60
2021/12/03 01:36:32;;;;;;;1.60;1.50;;;4.00;99.90;;;;;;4994493;28;20281;-60
2021/12/03 01:38:59;;;;;;;1.50;1.40;;;4.00;99.90;;;;;;4999316;28;20293;-60
2021/12/03 01:41:27;;;;;;;1.50;1.40;;;4.10;99.90;;;;;;5008812;28;20216;-60
2021/12/03 01:44:00;;;;;;;1.10;1.10;;;4.10;99.90;;;;;;5013133;28;20319;-60
2021/12/03 01:46:27;;;;;;;1.37;1.37;;;4.20;99.90;;;;;;5013263;28;20225;-60
2021/12/03 01:48:54;;;;;;;1.40;1.30;;;4.30;99.90;;;;;;5012893;28;20292;-61
2021/12/03 01:51:21;;;;;;;1.30;1.30;;;4.30;99.90;;;;;;5013008;28;20289;-59
2021/12/03 01:53:49;;;;;;;1.47;1.37;;;4.30;99.90;;;;;;5012419;28;20312;-59
2021/12/03 01:56:17;;;;;;;1.37;1.30;;;4.20;99.90;;;;;;5012043;28;20240;-58
2021/12/03 01:58:47;;;;;;;1.37;1.37;;;4.20;99.90;;;;;;5010827;28;20676;-61
2021/12/03 02:01:20;;;;;;;1.40;1.40;;;4.10;99.90;;;;;;5012755;28;20263;-58
2021/12/03 02:03:50;;;;;;;1.50;1.50;;;4.10;99.90;;;;;;5005133;28;20261;-60
2021/12/03 02:06:17;;;;;;;1.50;1.50;;;4.20;99.90;;;;;;5010231;28;20225;-60
2021/12/03 02:08:44;;;;;;;1.53;1.50;;;4.10;99.90;;;;;;5010716;28;20305;-60
2021/12/03 02:11:12;;;;;;;1.60;1.50;;;4.10;99.90;;;;;;5008774;28;20624;-60
2021/12/03 02:13:39;;;;;;;1.70;1.50;;;4.00;99.90;;;;;;5011425;28;20225;-61
2021/12/03 02:16:07;;;;;;;1.30;1.30;;;4.10;99.90;;;;;;5008355;28;20565;-60
2021/12/03 02:18:35;;;;;;;1.60;1.50;;;4.10;99.90;;;;;;5012590;28;20264;-60
2021/12/03 02:21:06;;;;;;;1.40;1.40;;;4.10;99.90;;;;;;5004843;28;20205;-61
2021/12/03 02:23:34;;;;;;;1.40;1.40;;;4.20;99.90;;;;;;5001238;28;20349;-60
2021/12/03 02:26:01;;;;;;;1.23;1.23;;;4.30;99.90;;;;;;5010626;28;20691;-60
2021/12/03 02:28:31;;;;;;;1.20;1.20;;;4.30;99.90;;;;;;5007235;28;20638;-60
2021/12/03 02:30:58;;;;;;;1.30;1.30;;;4.30;99.90;;;;;;5009355;28;20653;-60
2021/12/03 02:33:25;;;;;;;1.33;1.33;;;4.40;99.90;;;;;;5003326;28;20311;-60
2021/12/03 02:35:53;;;;;;;1.27;1.27;;;4.40;99.90;;;;;;5012285;28;20340;-60
2021/12/03 02:38:23;;;;;;;1.60;1.50;;;4.40;99.90;;;;;;5009438;28;20292;-59
2021/12/03 02:40:52;;;;;;;1.57;1.50;;;4.40;99.90;;;;;;5012426;28;20233;-60
2021/12/03 02:43:19;;;;;;;1.50;1.40;;;4.30;99.90;;;;;;5011931;28;20233;-59
2021/12/03 02:45:46;;;;;;;1.30;1.30;;;4.40;99.90;;;;;;5010494;28;20229;-60
2021/12/03 02:48:14;;;;;;;1.30;1.30;;;4.40;99.90;;;;;;5007131;28;20241;-60
2021/12/03 02:50:41;;;;;;;1.20;1.20;;;4.40;99.90;;;;;;5009861;28;20197;-59
2021/12/03 02:53:08;;;;;;;1.30;1.30;;;4.40;99.90;;;;;;5011807;28;20225;-60
2021/12/03 02:55:36;;;;;;;1.20;1.20;;;4.40;99.90;;;;;;5008183;28;20232;-59
2021/12/03 02:58:04;;;;;;;1.40;1.40;;;4.40;99.90;;;;;;5026087;22;20251;-64
2021/12/03 03:00:31;;;;;;;1.40;1.40;;;4.40;99.90;;;;;;5027482;28;20246;-65
2021/12/03 03:02:59;;;;;;;1.20;1.20;;;4.40;99.90;;;;;;5022517;28;20236;-65
2021/12/03 03:05:27;;;;;;;1.30;1.30;;;4.30;99.90;;;;;;5027963;28;20224;-66
2021/12/03 03:07:55;;;;;;;1.50;1.40;;;4.20;99.90;;;;;;5016056;28;20297;-64
2021/12/03 03:10:27;;;;;;;1.30;1.30;;;4.10;99.90;;;;;;5027645;28;20299;-65
2021/12/03 03:12:57;;;;;;;1.60;1.50;;;4.20;99.90;;;;;;5034754;28;20231;-64
2021/12/03 03:15:24;;;;;;;1.27;1.23;;;4.20;99.90;;;;;;5033068;28;20804;-66
2021/12/03 03:17:52;;;;;;;1.60;1.50;;;4.20;99.90;;;;;;5026994;28;20274;-65
2021/12/03 03:20:20;;;;;;;1.30;1.30;;;4.10;99.90;;;;;;5025106;28;20738;-64
2021/12/03 03:22:48;;;;;;;1.60;1.50;;;4.00;99.90;;;;;;5037312;28;20685;-65
2021/12/03 03:25:18;;;;;;;1.50;1.40;;;4.00;99.90;;;;;;5038053;28;20247;-66
2021/12/03 03:27:45;;;;;;;1.20;1.20;;;4.00;99.90;;;;;;5039587;28;20228;-66
2021/12/03 03:30:15;;;;;;;1.40;1.40;;;3.90;99.90;;;;;;5046881;28;20243;-69
2021/12/03 03:32:44;;;;;;;1.40;1.40;;;3.80;99.90;;;;;;5049311;28;20667;-66
2021/12/03 03:35:11;;;;;;;1.40;1.40;;;3.80;99.90;;;;;;5043423;28;20266;-65
2021/12/03 03:37:39;;;;;;;1.30;1.30;;;3.80;99.90;;;;;;5048388;28;20228;-66
2021/12/03 03:40:08;;;;;;;1.30;1.30;;;3.80;99.90;;;;;;5031449;28;20299;-65
2021/12/03 03:42:35;;;;;;;1.30;1.30;;;3.80;99.90;;;;;;5028726;28;20582;-65
2021/12/03 03:45:02;;;;;;;1.40;1.30;;;3.80;99.90;;;;;;5028640;28;20292;-64
2021/12/03 03:47:31;;;;;;;1.20;1.20;;;3.80;99.90;;;;;;5031736;28;20208;-65
2021/12/03 03:49:58;;;;;;;1.50;1.30;;;3.80;99.90;;;;;;5031254;28;20296;-66
2021/12/03 03:52:24;;;;;;;1.13;1.13;;;3.70;99.90;;;;;;5032402;28;20215;-65
2021/12/03 03:54:51;;;;;;;1.37;1.37;;;3.70;99.90;;;;;;5033445;28;20224;-65
2021/12/03 03:57:18;;;;;;;1.10;1.10;;;3.70;99.90;;;;;;5032059;28;20240;-66
2021/12/03 03:59:45;;;;;;;1.30;1.20;;;3.70;99.90;;;;;;5034921;28;20310;-65
2021/12/03 04:02:12;;;;;;;1.17;1.17;;;3.70;99.90;;;;;;5041167;28;20291;-66
2021/12/03 04:04:41;;;;;;;1.30;1.30;;;3.70;99.90;;;;;;5036329;28;20244;-65
2021/12/03 04:07:07;;;;;;;1.20;1.20;;;3.70;99.90;;;;;;5030232;28;20235;-63
2021/12/03 04:09:34;;;;;;;1.30;1.30;;;3.60;99.90;;;;;;5037589;28;20593;-65
2021/12/03 04:12:01;;;;;;;1.20;1.20;;;3.60;99.90;;;;;;5036231;28;20315;-65
2021/12/03 04:14:28;;;;;;;1.37;1.37;;;3.50;99.90;;;;;;5035560;28;20287;-65
2021/12/03 04:16:55;;;;;;;1.23;1.23;;;3.40;99.90;;;;;;5037576;28;20223;-65
2021/12/03 04:19:22;;;;;;;1.20;1.20;;;3.40;99.90;;;;;;5029010;28;20227;-66
2021/12/03 04:21:50;;;;;;;1.20;1.20;;;3.40;99.90;;;;;;5050166;28;20232;-64
2021/12/03 04:24:18;;;;;;;1.40;1.40;;;3.30;99.90;;;;;;5031392;28;20209;-66
2021/12/03 04:26:46;;;;;;;1.00;1.00;;;3.30;99.90;;;;;;5032724;28;20278;-64
2021/12/03 04:29:13;;;;;;;1.10;1.10;;;3.50;99.90;;;;;;5030085;28;20643;-65
2021/12/03 04:31:40;;;;;;;1.20;1.20;;;3.50;99.90;;;;;;5025309;28;20224;-65
2021/12/03 04:34:07;;;;;;;1.30;1.30;;;3.60;99.90;;;;;;5032182;28;20208;-66
2021/12/03 04:36:34;;;;;;;1.27;1.27;;;3.70;99.90;;;;;;5024941;28;20199;-65
2021/12/03 04:39:02;;;;;;;1.00;1.00;;;3.70;99.90;;;;;;5034183;28;20315;-67
2021/12/03 04:41:29;;;;;;;1.10;1.10;;;3.60;99.90;;;;;;5026616;28;20293;-65
2021/12/03 04:43:56;;;;;;;1.17;1.17;;;3.70;99.90;;;;;;5035198;28;20264;-65
2021/12/03 04:46:23;;;;;;;1.13;1.13;;;3.80;99.90;;;;;;5028294;28;20308;-64
2021/12/03 04:48:51;;;;;;;1.03;1.03;;;3.90;99.90;;;;;;5026499;28;20308;-65
2021/12/03 04:51:17;;;;;;;1.20;1.20;;;3.90;99.90;;;;;;5030913;28;20316;-65
2021/12/03 04:53:44;;;;;;;1.20;1.20;;;4.10;99.90;;;;;;5026657;28;20293;-66
2021/12/03 04:56:13;;;;;;;1.10;1.10;;;4.10;99.90;;;;;;5033204;28;20207;-66
2021/12/03 04:58:40;;;;;;;1.10;1.10;;;4.10;99.90;;;;;;5025982;28;20239;-65
2021/12/03 05:01:07;;;;;;;1.20;1.20;;;4.10;99.90;;;;;;5026004;28;20449;-65
2021/12/03 05:03:36;;;;;;;1.20;1.20;;;4.10;99.90;;;;;;5026871;28;20308;-66
2021/12/03 05:06:03;;;;;;;1.23;1.23;;;4.10;99.90;;;;;;5026302;28;20224;-66
2021/12/03 05:08:31;;;;;;;1.30;1.30;;;4.20;99.90;;;;;;5029140;28;20220;-64
2021/12/03 05:10:59;;;;;;;1.20;1.20;;;4.20;99.90;;;;;;5018530;28;20607;-66
2021/12/03 05:13:29;;;;;;;1.37;1.37;;;4.20;99.90;;;;;;5029306;28;20663;-65
2021/12/03 05:15:57;;;;;;;1.90;1.80;;;4.10;99.90;;;;;;5025126;28;20284;-66
2021/12/03 05:18:26;;;;;;;1.80;1.70;;;4.10;99.90;;;;;;5029886;28;20263;-64
2021/12/03 05:20:55;;;;;;;1.50;1.50;;;4.10;99.90;;;;;;5026186;28;20295;-64
2021/12/03 05:23:24;;;;;;;1.43;1.43;;;4.10;99.90;;;;;;5030185;28;20653;-65
2021/12/03 05:25:52;;;;;;;1.43;1.43;;;4.10;99.90;;;;;;5026989;28;20231;-65
2021/12/03 05:28:19;;;;;;;1.50;1.40;;;4.10;99.90;;;;;;5031113;28;20256;-65
2021/12/03 05:30:47;;;;;;;1.30;1.30;;;4.10;99.90;;;;;;5032647;28;20211;-65
2021/12/03 05:33:14;;;;;;;1.33;1.33;;;4.10;99.90;;;;;;5032202;28;20251;-65
2021/12/03 05:35:41;;;;;;;1.27;1.27;;;4.10;99.90;;;;;;5030601;28;20853;-66
2021/12/03 05:38:08;;;;;;;1.03;1.03;;;4.10;99.90;;;;;;5039312;28;20267;-64
2021/12/03 05:40:35;;;;;;;1.00;1.00;;;4.10;99.90;;;;;;5035445;28;20338;-66
2021/12/03 05:43:02;;;;;;;1.13;1.13;;;4.10;99.90;;;;;;5029041;28;20300;-65
2021/12/03 05:45:32;;;;;;;1.10;1.10;;;4.10;99.90;;;;;;5027296;28;20300;-65
2021/12/03 05:48:02;;;;;;;1.20;1.20;;;4.20;99.90;;;;;;5022477;28;20695;-65
2021/12/03 05:50:29;;;;;;;1.30;1.30;;;4.20;99.90;;;;;;5028500;28;20204;-65
2021/12/03 05:52:58;;;;;;;1.40;1.40;;;4.20;99.90;;;;;;5028674;28;20231;-65
2021/12/03 05:55:26;;;;;;;1.67;1.57;;;4.20;99.90;;;;;;5028500;28;20547;-65
2021/12/03 05:57:53;;;;;;;1.80;1.70;;;4.20;99.90;;;;;;5029364;28;20252;-64
2021/12/03 06:00:23;;;;;;;1.90;1.80;;;4.10;99.90;;;;;;5027854;28;20725;-64
2021/12/03 06:02:50;;;;;;;2.00;1.90;;;4.10;99.90;;;;;;5030909;28;20206;-66
2021/12/03 06:05:18;;;;;;;1.77;1.67;;;4.00;99.90;;;;;;5022790;28;20300;-65
2021/12/03 06:07:45;;;;;;;1.70;1.60;;;4.00;99.90;;;;;;5030320;28;20221;-64
2021/12/03 06:10:11;;;;;;;1.47;1.47;;;4.00;99.90;;;;;;5034678;28;20232;-64
2021/12/03 06:12:38;;;;;;;1.73;1.63;;;4.00;99.90;;;;;;5021801;28;20576;-65
2021/12/03 06:15:06;;;;;;;1.80;1.70;;;3.90;99.90;;;;;;5018559;28;20295;-64
2021/12/03 06:17:33;;;;;;;1.77;1.67;;;3.90;99.90;;;;;;5029548;28;20260;-66
2021/12/03 06:20:00;;;;;;;1.90;1.80;;;3.90;99.90;;;;;;5031549;28;20235;-66
2021/12/03 06:22:29;;;;;;;1.70;1.60;;;3.90;99.90;;;;;;5033751;28;20643;-65
2021/12/03 06:24:56;;;;;;;1.77;1.63;;;3.90;99.90;;;;;;5034967;28;20240;-64
2021/12/03 06:27:24;;;;;;;1.50;1.40;;;3.80;99.90;;;;;;5029318;28;20613;-65
2021/12/03 06:29:51;;;;;;;1.77;1.67;;;3.80;99.90;;;;;;5029152;28;20315;-65
2021/12/03 06:32:18;;;;;;;1.53;1.43;;;4.00;99.90;;;;;;5032001;28;20205;-66
2021/12/03 06:34:45;;;;;;;1.37;1.37;;;3.80;99.90;;;;;;5028626;28;20746;-65
2021/12/03 06:37:12;;;;;;;1.37;1.37;;;3.90;99.90;;;;;;5030257;28;20197;-64
2021/12/03 06:39:40;;;;;;;1.30;1.30;;;3.80;99.90;;;;;;5023595;28;20566;-66
2021/12/03 06:42:07;;;;;;;1.90;1.80;;;3.80;99.90;;;;;;5030113;28;20232;-65
2021/12/03 06:44:35;;;;;;;1.73;1.63;;;3.70;99.90;;;;;;5021301;28;20296;-65
2021/12/03 06:47:02;;;;;;;1.40;1.40;;;3.70;99.90;;;;;;5033831;28;20216;-64
2021/12/03 06:49:33;;;;;;;1.20;1.20;;;3.60;99.90;;;;;;5033796;28;20224;-65
2021/12/03 06:52:03;;;;;;;1.10;1.10;;;3.60;99.90;;;;;;5013882;28;20204;-66
2021/12/03 06:54:31;;;;;;;1.10;1.10;;;3.60;99.90;;;;;;5027354;28;20351;-65
2021/12/03 06:57:01;;;;;;;1.20;1.20;;;3.60;99.90;;;;;;5022779;28;20232;-67
2021/12/03 06:59:28;;;;;;;1.17;1.17;;;3.60;99.90;;;;;;5044989;28;20246;-66
2021/12/03 07:01:55;;;;;;;1.10;1.10;;;3.70;99.90;;;;;;5042484;28;20614;-65
2021/12/03 07:04:23;;;;;;;1.20;1.20;;;3.70;99.90;;;;;;5043222;28;20340;-65
2021/12/03 07:06:52;;;;;;;1.07;1.07;;;3.70;99.90;;;;;;5036140;28;20610;-66
2021/12/03 07:09:19;;;;;;;1.50;1.40;;;3.80;99.90;;;;;;5034216;28;20714;-66
2021/12/03 07:11:46;;;;;;;1.40;1.40;;;3.80;99.90;;;;;;5030771;28;20289;-66
2021/12/03 07:14:15;;;;;;;1.10;1.10;;;3.80;99.90;;;;;;5032039;28;20266;-66
2021/12/03 07:16:42;;;;;;;1.30;1.30;;;3.80;99.90;;;;;;5016158;28;20284;-65
2021/12/03 07:19:09;;;;;;;1.20;1.20;;;3.80;99.90;;;;;;5030388;28;20774;-64
2021/12/03 07:21:35;;;;;;;1.63;1.53;;;3.80;99.90;;;;;;5030241;28;20232;-63
2021/12/03 07:24:02;;;;;;;1.60;1.50;;;3.80;99.90;;;;;;5040114;28;20244;-66
2021/12/03 07:26:29;;;;;;;1.40;1.40;;;3.70;99.90;;;;;;5041330;28;20251;-66
2021/12/03 07:28:56;;;;;;;1.30;1.30;;;3.70;99.90;;;;;;5023475;28;20256;-66
2021/12/03 07:31:24;;;;;;;1.40;1.30;;;3.70;99.90;;;;;;5024776;28;20201;-66
2021/12/03 07:33:54;;;;;;;1.20;1.20;;;3.70;99.90;;;;;;5020925;28;20215;-65
2021/12/03 07:36:21;;;;;;;1.50;1.40;;;3.60;99.90;;;;;;5026155;28;20292;-67
2021/12/03 07:38:48;;;;;;;1.33;1.33;;;3.60;99.90;;;;;;5018627;28;20652;-66
2021/12/03 07:41:14;;;;;;;1.10;1.10;;;3.50;99.90;;;;;;5015234;28;20288;-67
2021/12/03 07:43:41;;;;;;;1.17;1.17;;;3.50;99.90;;;;;;5028407;28;20268;-66
2021/12/03 07:46:08;;;;;;;1.20;1.20;;;3.60;99.90;;;;;;5031561;28;20299;-67
2021/12/03 07:48:37;;;;;;;1.20;1.20;;;3.60;99.90;;;;;;5023323;28;20696;-65
2021/12/03 07:51:04;;;;;;;1.20;1.20;;;3.70;99.90;;;;;;5022785;28;20576;-65
2021/12/03 07:53:31;;;;;;;1.20;1.20;;;3.80;99.90;;;;;;5033980;28;20268;-65
2021/12/03 07:55:58;;;;;;;1.30;1.30;;;3.80;99.90;;;;;;5048841;28;20201;-65
2021/12/03 07:58:25;;;;;;;1.30;1.30;;;3.80;99.90;;;;;;5028464;28;20780;-65
2021/12/03 08:00:54;;;;;;;1.60;1.50;;;3.80;99.90;;;;;;5030593;28;20201;-65
2021/12/03 08:03:21;;;;;;;1.23;1.23;;;3.80;99.90;;;;;;5030775;28;20258;-65
2021/12/03 08:05:49;;;;;;;1.30;1.30;;;3.80;99.90;;;;;;5033130;28;20200;-66
2021/12/03 08:08:22;;;;;;;1.70;1.60;;;3.80;99.90;;;;;;5026051;28;20225;-65
2021/12/03 08:10:49;;;;;;;1.40;1.40;;;3.90;99.90;;;;;;5019509;28;20201;-67
2021/12/03 08:13:16;;;;;;;1.73;1.53;;;4.00;99.90;;;;;;5030324;28;20215;-67
2021/12/03 08:15:43;;;;;;;1.50;1.40;;;4.00;99.90;;;;;;5028961;28;20285;-65
2021/12/03 08:18:10;;;;;;;1.40;1.40;;;4.00;99.90;;;;;;5016965;28;20253;-65
2021/12/03 08:20:37;;;;;;;1.60;1.50;;;4.10;99.90;;;;;;5032972;28;20231;-66
2021/12/03 08:23:05;;;;;;;1.30;1.30;;;4.10;99.90;;;;;;5029139;28;20292;-66
2021/12/03 08:25:33;;;;;;;1.37;1.37;;;4.10;99.90;;;;;;5029592;28;20205;-66
2021/12/03 08:28:00;;;;;;;1.30;1.30;;;4.20;99.90;;;;;;5035556;28;20674;-67
2021/12/03 08:30:28;;;;;;;1.60;1.50;;;4.20;99.90;;;;;;5032629;28;20292;-65
2021/12/03 08:32:56;;;;;;;1.20;1.20;;;4.20;99.90;;;;;;5035066;28;20205;-66
2021/12/03 08:35:23;;;;;;;1.70;1.60;;;4.20;99.90;;;;;;5035462;28;20287;-64
2021/12/03 08:37:50;;;;;;;1.40;1.40;;;4.30;99.90;;;;;;5030832;28;20613;-66
2021/12/03 08:40:19;;;;;;;1.10;1.10;;;4.40;99.90;;;;;;5030335;28;20201;-65
2021/12/03 08:42:47;;;;;;;1.40;1.40;;;4.40;99.90;;;;;;5033386;28;20201;-65
2021/12/03 08:45:16;;;;;;;1.40;1.40;;;4.40;99.90;;;;;;5031640;28;20259;-66
2021/12/03 08:47:45;;;;;;;1.20;1.20;;;4.50;99.90;;;;;;5025803;28;20228;-66
2021/12/03 08:50:15;;;;;;;1.40;1.30;;;4.60;99.90;;;;;;5033382;28;20255;-66
2021/12/03 08:55:38;;;;;;;1.20;1.20;;;4.80;99.90;;;;;;4986113;28;20577;-66
2021/12/03 08:58:05;;;;;;;1.27;1.27;;;4.90;99.90;;;;;;5027692;28;20319;-64
2021/12/03 09:00:33;;;;;;;1.40;1.30;;;5.00;99.90;;;;;;5025694;28;20205;-66
2021/12/03 09:03:00;;;;;;;1.23;1.23;;;5.10;99.90;;;;;;5024544;28;20220;-64
2021/12/03 09:05:30;;;;;;;1.20;1.20;;;5.20;99.90;;;;;;5031862;28;20203;-63
2021/12/03 09:07:57;;;;;;;1.20;1.20;;;5.30;99.90;;;;;;5024850;28;20252;-66
2021/12/03 09:10:24;;;;;;;1.20;1.20;;;5.30;99.90;;;;;;5024327;28;20300;-63
2021/12/03 09:12:52;;;;;;;1.10;1.10;;;5.50;99.90;;;;;;5033469;28;20204;-65
2021/12/03 09:15:25;;;;;;;1.20;1.20;;;5.60;99.90;;;;;;5032957;28;20215;-64
2021/12/03 09:18:18;;;;;;;1.40;1.30;;;5.60;99.90;;;;;;5032606;28;20232;-65
2021/12/03 09:20:54;;;;;;;1.20;1.20;;;5.60;99.90;;;;;;5029732;28;20215;-65
2021/12/03 09:23:27;;;;;;;1.00;1.00;;;5.50;99.90;;;;;;5033460;28;20208;-66
2021/12/03 09:26:03;;;;;;;1.00;1.00;;;5.50;99.90;;;;;;5031010;28;20201;-66
2021/12/03 09:28:32;;;;;;;1.20;1.10;;;5.60;99.90;;;;;;5028599;28;20601;-66
2021/12/03 09:30:59;;;;;;;1.03;1.03;;;5.70;99.90;;;;;;5033983;28;20272;-65
2021/12/03 09:33:28;;;;;;;1.10;1.10;;;5.80;99.90;;;;;;5031106;28;20200;-65
2021/12/03 09:35:57;;;;;;;0.97;0.97;;;5.80;99.90;;;;;;5032315;28;20303;-65
2021/12/03 09:38:25;;;;;;;1.00;1.00;;;5.80;99.90;;;;;;5029613;28;20240;-66
2021/12/03 09:40:52;;;;;;;0.97;0.97;;;5.80;99.90;;;;;;5032694;28;20197;-66
2021/12/03 09:43:19;;;;;;;1.10;1.10;;;5.90;99.90;;;;;;5033890;28;20262;-66
2021/12/03 09:45:57;;;;;;;0.90;0.90;;;5.90;99.90;;;;;;5030644;28;20260;-64
2021/12/03 09:48:40;;;;;;;1.00;1.00;;;5.90;99.90;;;;;;5033536;28;20228;-66
2021/12/03 09:51:07;;;;;;;1.10;1.10;;;6.00;99.90;;;;;;5018767;28;20201;-65
2021/12/03 09:53:59;;;;;;;1.00;1.00;;;6.20;99.90;;;;;;5019881;28;20288;-65
2021/12/03 09:56:29;;;;;;;0.90;0.90;;;6.30;99.90;;;;;;5024059;28;20572;-66
2021/12/03 10:01:46;;;;;;;1.00;1.00;;;6.20;99.90;;;;;;5006792;28;20206;-65
2021/12/03 10:04:35;;;;;;;0.90;0.90;;;6.20;99.90;;;;;;5025434;28;20209;-65
2021/12/03 10:12:53;;;;;;;1.43;1.20;;;6.30;99.90;;;;;;4986645;28;20205;-65
2021/12/03 10:15:25;;;;;;;1.00;1.00;;;6.40;99.90;;;;;;5008789;28;20297;-64
2021/12/03 10:18:03;;;;;;;0.90;0.90;;;6.50;99.90;;;;;;4986973;28;20799;-65
2021/12/03 10:20:35;;;;;;;0.80;0.80;;;6.60;99.90;;;;;;4987088;28;20213;-66
2021/12/03 10:29:10;;;;;;;0.80;0.80;;;6.60;99.90;;;;;;4981464;28;20226;-64
2021/12/03 10:34:51;;;;;;;0.80;0.80;;;6.40;99.90;;;;;;4983590;28;20217;-66
2021/12/03 10:40:33;;;;;;;1.00;1.00;;;6.40;99.90;;;;;;5000785;28;20294;-65
2021/12/03 10:43:12;;;;;;;0.97;0.97;;;6.30;99.90;;;;;;5031725;28;20240;-64
2021/12/03 10:45:47;;;;;;;1.00;1.00;;;6.30;99.90;;;;;;5043841;28;20242;-66
2021/12/03 10:48:29;;;;;;;1.00;1.00;;;6.10;99.90;;;;;;5032026;28;20239;-65
2021/12/03 10:51:16;;;;;;;0.87;0.87;;;6.00;99.90;;;;;;5035222;28;20264;-66
2021/12/03 10:53:53;;;;;;;0.90;0.90;;;6.00;99.90;;;;;;5038578;28;20197;-66
2021/12/03 10:56:44;;;;;;;0.80;0.80;;;6.00;99.90;;;;;;5030768;28;20211;-65
2021/12/03 11:31:02;;;;;;;0.87;0.87;;;6.30;99.90;;;;;;4973193;28;20201;-64
2021/12/03 11:36:43;;;;;;;0.80;0.80;;;6.20;99.90;;;;;;5009535;28;20200;-66
2021/12/03 11:39:39;;;;;;;1.00;1.00;;;6.20;99.90;;;;;;5018718;28;20278;-65
2021/12/03 13:17:12;;;;;;;0.90;0.90;;;6.00;99.90;;;;;;4992329;28;20201;-61
2021/12/03 13:22:48;;;;;;;1.00;1.00;;;6.10;99.90;;;;;;4990873;28;20201;-60
2021/12/03 13:57:15;;;;;;;0.90;0.90;;;5.90;99.90;;;;;;4994603;28;20691;-60
2021/12/03 14:05:32;;;;;;;0.97;0.87;;;6.00;99.90;;;;;;4990641;28;20198;-61
2021/12/03 14:41:46;;;;;;;1.30;1.20;;;5.70;99.90;;;;;;4975388;28;20685;-61
2021/12/03 14:44:19;;;;;;;0.80;0.80;;;5.60;99.90;;;;;;4976294;28;20203;-61
2021/12/03 14:47:08;;;;;;;0.93;0.93;;;5.60;99.90;;;;;;4978768;28;20198;-60
2021/12/03 14:50:05;;;;;;;0.93;0.93;;;5.60;99.90;;;;;;4975365;28;20317;-59
2021/12/03 14:52:37;;;;;;;1.23;1.13;;;5.60;99.90;;;;;;4976992;28;20202;-60
2021/12/03 14:55:08;;;;;;;0.90;0.90;;;5.60;99.90;;;;;;4976639;28;20199;-59
2021/12/03 14:57:42;;;;;;;0.90;0.90;;;5.50;99.90;;;;;;4980134;28;20198;-61
2021/12/03 15:03:08;;;;;;;1.00;1.00;;;5.50;99.90;;;;;;4978850;28;20273;-59
2021/12/03 15:05:54;;;;;;;1.03;1.03;;;5.50;99.90;;;;;;4979088;28;20213;-59
2021/12/03 15:08:24;;;;;;;1.07;1.07;;;5.50;99.90;;;;;;4981909;28;20642;-60
2021/12/03 15:24:41;;;;;;;0.90;0.90;;;5.30;99.90;;;;;;4983011;28;20191;-60
2021/12/03 15:27:34;;;;;;;0.90;0.90;;;5.30;99.90;;;;;;4974445;28;20297;-60
2021/12/03 15:32:56;;;;;;;0.90;0.90;;;5.30;99.90;;;;;;4954026;28;20194;-59
2021/12/03 15:35:31;;;;;;;1.00;1.00;;;5.20;99.90;;;;;;4975131;28;20688;-61
2021/12/03 15:38:13;;;;;;;1.00;1.00;;;5.20;99.90;;;;;;4976656;28;20194;-60
2021/12/03 15:57:42;;;;;;;1.10;1.10;;;5.10;99.90;;;;;;4969342;28;20258;-61
2021/12/03 16:08:22;;;;;;;1.00;1.00;;;5.20;99.90;;;;;;4977911;28;20225;-61
2021/12/03 16:10:57;;;;;;;1.30;1.00;;;5.20;99.90;;;;;;4974985;28;20237;-60
2021/12/03 16:13:33;;;;;;;1.03;1.03;;;5.20;99.90;;;;;;4975347;28;20288;-60
2021/12/03 16:21:45;;;;;;;1.10;1.10;;;5.10;99.90;;;;;;4985147;28;20229;-61
2021/12/03 16:43:42;;;;;;;1.00;1.00;;;5.10;99.90;;;;;;4980881;28;20277;-60
2021/12/03 16:46:21;;;;;;;1.23;0.90;;;5.10;99.90;;;;;;4987817;28;20224;-59
2021/12/03 16:51:49;;;;;;;0.83;0.83;;;5.00;99.90;;;;;;4925936;29;20704;-61
2021/12/03 16:54:21;;;;;;;0.80;0.80;;;5.00;99.90;;;;;;4924890;29;20239;-61
2021/12/03 16:56:51;;;;;;;1.10;1.10;;;5.00;99.90;;;;;;4963348;28;20206;-61
2021/12/03 16:59:18;;;;;;;1.20;1.20;;;5.10;99.90;;;;;;4991888;28;20201;-61
2021/12/03 17:01:48;;;;;;;1.20;1.20;;;5.00;99.90;;;;;;4983692;28;20233;-60
2021/12/03 17:04:38;;;;;;;0.97;0.97;;;5.10;99.90;;;;;;4986287;28;20213;-60
2021/12/03 17:16:08;;;;;;;1.20;1.20;;;5.00;99.90;;;;;;4942679;29;20286;-60
2021/12/03 17:49:02;;;;;;;0.87;0.87;;;5.10;99.90;;;;;;4985902;28;20226;-60
2021/12/03 17:54:32;;;;;;;0.80;0.80;;;5.10;99.90;;;;;;4989477;28;20279;-60
2021/12/03 17:57:06;;;;;;;0.80;0.80;;;5.10;99.90;;;;;;4986923;28;20569;-61
2021/12/03 17:59:38;;;;;;;0.80;0.80;;;5.10;99.90;;;;;;4986729;28;20202;-61
2021/12/03 18:02:14;;;;;;;0.70;0.70;;;5.20;99.90;;;;;;4988077;28;20610;-61
2021/12/03 18:04:55;;;;;;;1.00;1.00;;;5.20;99.90;;;;;;4990533;28;20209;-60
2021/12/03 18:07:30;;;;;;;1.10;1.10;;;5.10;99.90;;;;;;4982575;28;20210;-59
2021/12/03 18:15:52;;;;;;;0.80;0.80;;;5.20;99.90;;;;;;4989254;28;20201;-60
2021/12/03 18:43:25;;;;;;;0.70;0.70;;;5.50;99.90;;;;;;4978398;28;20253;-59
2021/12/03 18:48:52;;;;;;;0.90;0.90;;;5.50;99.90;;;;;;4974059;28;20782;-61
2021/12/03 18:51:26;;;;;;;0.80;0.80;;;5.40;99.90;;;;;;4981855;28;20318;-61
2021/12/03 18:54:03;;;;;;;0.70;0.70;;;5.50;99.90;;;;;;4988515;28;20206;-61
2021/12/03 18:56:33;;;;;;;0.60;0.60;;;5.50;99.90;;;;;;4989710;28;20209;-61
2021/12/03 18:59:04;;;;;;;0.60;0.60;;;5.50;99.90;;;;;;4985108;28;20238;-59
2021/12/03 19:01:32;;;;;;;0.57;0.57;;;5.50;99.90;;;;;;4990886;28;20221;-62
2021/12/03 19:04:12;;;;;;;0.70;0.70;;;5.60;99.90;;;;;;4984756;28;20209;-62
2021/12/03 19:06:43;;;;;;;0.60;0.60;;;5.60;99.90;;;;;;4988538;28;20206;-61
2021/12/03 19:09:14;;;;;;;0.60;0.60;;;5.60;99.90;;;;;;4986773;28;20254;-61
2021/12/03 19:11:45;;;;;;;0.53;0.53;;;5.60;99.90;;;;;;4983731;28;20700;-61
2021/12/03 19:14:12;;;;;;;0.57;0.57;;;5.60;99.90;;;;;;4982020;28;20210;-60
2021/12/03 19:16:39;;;;;;;0.70;0.70;;;5.60;99.90;;;;;;4989855;28;20202;-60
2021/12/03 19:19:09;;;;;;;0.50;0.50;;;5.70;99.90;;;;;;4982775;28;20203;-60
2021/12/03 19:21:39;;;;;;;0.60;0.60;;;5.70;99.90;;;;;;4977804;28;20221;-61
2021/12/03 19:24:09;;;;;;;0.70;0.70;;;5.70;99.90;;;;;;4975539;28;20206;-60
2021/12/03 19:26:42;;;;;;;0.57;0.57;;;5.70;99.90;;;;;;4973680;28;20203;-61